createdAt,value
2022-10-21T00:00:36.107Z,101405.69
2022-10-21T00:04:57.874Z,101405.69
2022-10-21T00:08:59.765Z,101403.16
2022-10-21T00:13:01.587Z,101391.94
2022-10-21T00:17:03.285Z,101385.06
2022-10-21T00:21:07.522Z,101378.19
2022-10-21T00:25:09.694Z,101382.50
2022-10-21T00:29:11.539Z,101377.34
2022-10-21T00:33:13.870Z,101373.88
2022-10-21T00:37:15.841Z,101373.88
2022-10-21T00:41:19.713Z,101358.38
2022-10-21T00:45:23.901Z,101369.59
2022-10-21T00:49:43.808Z,101361.84
2022-10-21T00:53:49.777Z,101362.69
2022-10-21T00:57:51.724Z,101361.84
2022-10-21T01:01:54.112Z,101352.38
2022-10-21T01:05:58.674Z,101367.00
2022-10-21T01:10:00.729Z,101349.78
2022-10-21T01:14:32.343Z,101354.94
2022-10-21T01:18:37.122Z,101348.06
2022-10-21T01:23:00.618Z,101359.25
2022-10-21T01:27:13.708Z,101359.25
2022-10-21T01:31:46.994Z,101356.69
2022-10-21T01:36:01.846Z,101354.09
2022-10-21T01:40:10.536Z,101350.63
2022-10-21T01:44:21.635Z,101357.53
2022-10-21T01:48:29.153Z,101354.94
2022-10-21T01:52:31.136Z,101344.63
2022-10-21T01:56:33.886Z,101344.59
2022-10-21T02:00:37.163Z,101319.69
2022-10-21T02:04:42.501Z,101317.94
2022-10-21T02:08:44.926Z,101317.94
2022-10-21T02:12:51.681Z,101317.09
2022-10-21T02:16:54.687Z,101310.22
2022-10-21T02:20:59.766Z,101302.47
2022-10-21T02:25:08.605Z,101301.59
2022-10-21T02:29:12.279Z,101295.59
2022-10-21T02:33:20.379Z,101293.84
2022-10-21T02:37:51.146Z,101284.41
2022-10-21T02:41:55.767Z,101284.41
2022-10-21T02:46:10.327Z,101269.75
2022-10-21T02:50:12.936Z,101260.25
2022-10-21T02:54:14.649Z,101254.22
2022-10-21T02:58:16.466Z,101249.03
2022-10-21T03:02:18.194Z,101269.69
2022-10-21T03:06:20.135Z,101278.28
2022-10-21T03:10:21.886Z,101261.94
2022-10-21T03:14:23.904Z,101254.19
2022-10-21T03:18:26.123Z,101266.25
2022-10-21T03:22:28.041Z,101255.03
2022-10-21T03:26:29.611Z,101235.28
2022-10-21T03:30:31.882Z,101223.19
2022-10-21T03:34:33.460Z,101221.47
2022-10-21T03:38:35.359Z,101221.50
2022-10-21T03:42:37.399Z,101208.56
2022-10-21T03:46:39.459Z,101201.72
2022-10-21T03:50:41.047Z,101187.97
2022-10-21T03:54:42.958Z,101175.97
2022-10-21T03:58:44.610Z,101182.00
2022-10-21T04:02:46.549Z,101183.75
2022-10-21T04:06:48.279Z,101186.34
2022-10-21T04:10:50.138Z,101184.63
2022-10-21T04:14:51.970Z,101178.63
2022-10-21T04:18:54.017Z,101177.78
2022-10-21T04:22:55.711Z,101174.31
2022-10-21T04:26:57.613Z,101167.47
2022-10-21T04:30:59.599Z,101170.91
2022-10-21T04:35:01.442Z,101160.59
2022-10-21T04:39:03.686Z,101154.56
2022-10-21T04:43:05.907Z,101134.78
2022-10-21T04:47:07.526Z,101137.38
2022-10-21T04:51:09.435Z,101130.47
2022-10-21T04:55:11.261Z,101123.63
2022-10-21T04:59:13.163Z,101129.63
2022-10-21T05:03:14.804Z,101129.59
2022-10-21T05:07:16.710Z,101122.66
2022-10-21T05:11:18.350Z,101118.31
2022-10-21T05:15:20.240Z,101119.19
2022-10-21T05:19:21.960Z,101126.06
2022-10-21T05:23:24.428Z,101113.13
2022-10-21T05:27:26.149Z,101108.81
2022-10-21T05:31:28.261Z,101089.00
2022-10-21T05:35:30.208Z,101070.88
2022-10-21T05:39:32.057Z,101072.50
2022-10-21T05:43:33.975Z,101077.53
2022-10-21T05:47:35.844Z,101079.94
2022-10-21T05:51:37.480Z,101078.13
2022-10-21T05:55:40.035Z,101082.28
2022-10-21T05:59:41.745Z,101076.91
2022-10-21T06:03:43.618Z,101066.47
2022-10-21T06:07:45.461Z,101076.72
2022-10-21T06:11:47.262Z,101078.31
2022-10-21T06:15:51.105Z,101075.69
2022-10-21T06:19:53.283Z,101073.00
2022-10-21T06:23:55.492Z,101072.94
2022-10-21T06:27:57.342Z,101069.44
2022-10-21T06:31:59.079Z,101085.81
2022-10-21T06:36:01.062Z,101078.84
2022-10-21T06:40:04.627Z,101082.13
2022-10-21T06:44:06.779Z,101074.31
2022-10-21T06:48:08.540Z,101078.53
2022-10-21T06:52:10.430Z,101072.25
2022-10-21T06:56:18.070Z,101064.16
2022-10-21T07:00:20.024Z,101052.53
2022-10-21T07:04:21.829Z,101046.06
2022-10-21T07:08:39.817Z,101037.91
2022-10-21T07:12:46.792Z,101048.69
2022-10-21T07:16:49.127Z,101039.69
2022-10-21T07:20:50.953Z,101045.47
2022-10-21T07:24:52.856Z,101053.72
2022-10-21T07:28:55.828Z,101055.84
2022-10-21T07:32:57.844Z,101061.38
2022-10-21T07:36:59.645Z,101054.22
2022-10-21T07:41:02.338Z,101071.00
2022-10-21T07:45:04.591Z,101061.91
2022-10-21T07:49:09.380Z,101063.22
2022-10-21T07:53:12.671Z,101078.66
2022-10-21T07:57:15.270Z,101075.28
2022-10-21T08:01:17.449Z,101069.94
2022-10-21T08:05:19.340Z,101075.53
2022-10-21T08:09:21.367Z,101086.66
2022-10-21T08:13:23.589Z,101085.66
2022-10-21T08:17:25.271Z,101073.69
2022-10-21T08:21:28.112Z,101090.44
2022-10-21T08:25:30.150Z,101086.03
2022-10-21T08:29:34.282Z,101080.31
2022-10-21T08:33:38.769Z,101074.16
2022-10-21T08:37:40.626Z,101068.84
2022-10-21T08:41:53.409Z,101069.94
2022-10-21T08:45:59.626Z,101053.84
2022-10-21T08:50:03.155Z,101045.84
2022-10-21T08:54:12.535Z,101049.97
2022-10-21T08:58:19.234Z,101038.69
2022-10-21T09:02:30.064Z,101055.19
2022-10-21T09:06:50.745Z,101050.59
2022-10-21T09:11:26.224Z,101046.22
2022-10-21T09:15:46.592Z,101046.84
2022-10-21T09:20:27.400Z,101037.88
2022-10-21T09:24:45.012Z,101046.25
2022-10-21T09:28:48.504Z,101029.22
2022-10-21T09:32:55.542Z,101019.03
2022-10-21T09:36:59.387Z,101015.34
2022-10-21T09:41:03.511Z,101013.28
2022-10-21T09:45:09.688Z,101013.13
2022-10-21T09:49:53.961Z,101002.88
2022-10-21T09:53:54.489Z,100994.28
2022-10-21T09:58:01.748Z,100973.19
2022-10-21T10:02:14.822Z,100979.31
2022-10-21T10:06:43.898Z,100983.72
2022-10-21T10:10:45.734Z,100966.72
2022-10-21T10:14:48.231Z,100978.84
2022-10-21T10:18:52.696Z,100973.50
2022-10-21T10:23:00.218Z,100965.25
2022-10-21T10:27:03.943Z,100963.91
2022-10-21T10:31:06.887Z,100970.34
2022-10-21T10:35:20.181Z,100964.03
2022-10-21T10:39:30.563Z,100953.69
2022-10-21T10:43:35.310Z,100950.50
2022-10-21T10:47:47.903Z,100941.66
2022-10-21T10:52:11.738Z,100931.50
2022-10-21T10:56:23.003Z,100935.19
2022-10-21T11:00:24.950Z,100918.97
2022-10-21T11:04:40.105Z,100925.28
2022-10-21T11:08:48.084Z,100918.09
2022-10-21T11:12:49.932Z,100906.75
2022-10-21T11:17:12.907Z,100883.66
2022-10-21T11:21:33.325Z,100878.41
2022-10-21T11:25:47.381Z,100870.00
2022-10-21T11:29:56.827Z,100872.38
2022-10-21T11:34:13.735Z,100865.16
2022-10-21T11:38:23.372Z,100862.88
2022-10-21T11:42:43.563Z,100875.84
2022-10-21T11:47:03.795Z,100865.56
2022-10-21T11:51:24.709Z,100850.97
2022-10-21T11:55:41.734Z,100842.84
2022-10-21T12:00:01.154Z,100836.63
2022-10-21T12:04:20.563Z,100832.47
2022-10-21T12:08:51.652Z,100830.63
2022-10-21T12:12:57.544Z,100834.44
2022-10-21T12:17:02.924Z,100830.44
2022-10-21T12:21:06.540Z,100830.94
2022-10-21T12:25:14.572Z,100814.25
2022-10-21T12:29:23.110Z,100805.41
2022-10-21T12:33:36.019Z,100802.53
2022-10-21T12:37:53.045Z,100797.47
2022-10-21T12:42:06.060Z,100796.03
2022-10-21T12:46:11.127Z,100812.03
2022-10-21T12:50:32.752Z,100807.41
2022-10-21T12:54:43.527Z,100804.50
2022-10-21T12:58:46.255Z,100796.97
2022-10-21T13:03:10.555Z,100799.91
2022-10-21T13:07:15.265Z,100801.59
2022-10-21T13:11:40.641Z,100787.66
2022-10-21T13:15:46.493Z,100774.00
2022-10-21T13:19:49.713Z,100771.63
2022-10-21T13:23:53.626Z,100774.00
2022-10-21T13:28:05.922Z,100770.78
2022-10-21T13:32:13.776Z,100767.44
2022-10-21T13:36:16.450Z,100769.44
2022-10-21T13:40:21.820Z,100767.38
2022-10-21T13:44:29.793Z,100776.13
2022-10-21T13:48:40.619Z,100760.78
2022-10-21T13:52:45.285Z,100746.03
2022-10-21T13:56:47.534Z,100732.13
2022-10-21T14:00:49.364Z,100736.28
2022-10-21T14:04:51.301Z,100732.72
2022-10-21T14:08:54.650Z,100722.56
2022-10-21T14:17:13.409Z,100707.66
2022-10-21T14:21:20.550Z,100700.63
2022-10-21T14:25:22.428Z,100682.84
2022-10-21T14:29:28.107Z,100680.72
2022-10-21T14:33:30.003Z,100686.88
2022-10-21T14:37:50.155Z,100692.28
2022-10-21T14:41:52.275Z,100693.41
2022-10-21T14:45:54.301Z,100689.81
2022-10-21T14:50:00.309Z,100684.06
2022-10-21T14:54:07.082Z,100670.88
2022-10-21T14:58:13.156Z,100672.88
2022-10-21T15:02:21.150Z,100666.41
2022-10-21T15:06:34.533Z,100652.47
2022-10-21T15:10:36.452Z,100655.16
2022-10-21T15:14:38.302Z,100649.63
2022-10-21T15:18:45.560Z,100662.13
2022-10-21T15:22:48.523Z,100658.91
2022-10-21T15:26:52.940Z,100673.09
2022-10-21T15:30:54.728Z,100675.31
2022-10-21T15:34:58.487Z,100684.66
2022-10-21T15:39:01.019Z,100676.00
2022-10-21T15:43:04.207Z,100679.72
2022-10-21T15:47:11.086Z,100665.16
2022-10-21T15:51:13.016Z,100647.03
2022-10-21T15:55:14.738Z,100648.66
2022-10-21T15:59:20.284Z,100636.25
2022-10-21T16:03:22.905Z,100628.47
2022-10-21T16:07:29.386Z,100624.59
2022-10-21T16:11:40.681Z,100633.56
2022-10-21T16:15:43.546Z,100640.25
2022-10-21T16:19:45.242Z,100648.13
2022-10-21T16:23:47.443Z,100647.13
2022-10-21T16:27:56.197Z,100647.28
2022-10-21T16:31:58.552Z,100642.13
2022-10-21T16:36:00.241Z,100655.97
2022-10-21T16:40:02.415Z,100645.13
2022-10-21T16:44:04.279Z,100647.75
2022-10-21T16:48:06.192Z,100644.78
2022-10-21T16:52:11.581Z,100637.88
2022-10-21T16:56:13.497Z,100634.97
2022-10-21T17:00:15.459Z,100649.13
2022-10-21T17:04:17.947Z,100642.31
2022-10-21T17:08:19.637Z,100631.53
2022-10-21T17:12:22.657Z,100622.97
2022-10-21T17:16:24.587Z,100617.97
2022-10-21T17:20:30.441Z,100616.25
2022-10-21T17:24:32.165Z,100609.47
2022-10-21T17:28:34.094Z,100599.06
2022-10-21T17:32:35.877Z,100597.53
2022-10-21T17:36:37.993Z,100590.13
2022-10-21T17:40:39.834Z,100583.09
2022-10-21T17:44:41.713Z,100572.03
2022-10-21T17:48:43.605Z,100561.19
2022-10-21T17:52:45.557Z,100547.63
2022-10-21T17:56:49.826Z,100534.38
2022-10-21T18:00:51.915Z,100523.72
2022-10-21T18:04:54.011Z,100509.41
2022-10-21T18:08:59.244Z,100503.19
2022-10-21T18:13:00.985Z,100494.22
2022-10-21T18:17:03.568Z,100477.53
2022-10-21T18:21:08.189Z,100466.41
2022-10-21T18:25:10.314Z,100464.97
2022-10-21T18:29:12.157Z,100454.41
2022-10-21T18:33:14.111Z,100452.38
2022-10-21T18:37:15.798Z,100446.88
2022-10-21T18:41:20.633Z,100443.84
2022-10-21T18:45:23.007Z,100440.72
2022-10-21T18:49:24.934Z,100432.94
2022-10-21T18:53:26.649Z,100436.47
2022-10-21T18:57:28.566Z,100444.28
2022-10-21T19:01:30.331Z,100441.50
2022-10-21T19:05:32.403Z,100431.00
2022-10-21T19:09:34.081Z,100429.31
2022-10-21T19:13:35.991Z,100426.91
2022-10-21T19:17:39.689Z,100417.13
2022-10-21T19:21:41.935Z,100413.78
2022-10-21T19:25:43.792Z,100418.69
2022-10-21T19:29:45.820Z,100410.72
2022-10-21T19:33:47.571Z,100408.16
2022-10-21T19:37:49.473Z,100401.88
2022-10-21T19:41:51.308Z,100406.06
2022-10-21T19:45:53.728Z,100409.06
2022-10-21T19:49:55.441Z,100403.00
2022-10-21T19:53:57.760Z,100396.25
2022-10-21T19:57:59.507Z,100397.22
2022-10-21T20:02:01.467Z,100392.31
2022-10-21T20:06:08.976Z,100402.91
2022-10-21T20:10:10.977Z,100398.97
2022-10-21T20:14:13.566Z,100404.66
2022-10-21T20:18:15.499Z,100407.88
2022-10-21T20:22:17.547Z,100410.75
2022-10-21T20:26:20.195Z,100414.84
2022-10-21T20:30:22.054Z,100404.19
2022-10-21T20:34:24.363Z,100416.88
2022-10-21T20:38:26.095Z,100412.22
2022-10-21T20:42:28.032Z,100427.59
2022-10-21T20:46:34.937Z,100424.75
2022-10-21T20:50:37.077Z,100436.69
2022-10-21T20:54:38.872Z,100419.94
2022-10-21T20:58:41.331Z,100412.00
2022-10-21T21:02:43.100Z,100402.16
2022-10-21T21:06:47.504Z,100391.31
2022-10-21T21:10:49.189Z,100379.78
2022-10-21T21:14:51.027Z,100367.78
2022-10-21T21:18:58.862Z,100347.00
2022-10-21T21:23:00.719Z,100349.94
2022-10-21T21:27:02.410Z,100350.63
2022-10-21T21:31:06.402Z,100361.63
2022-10-21T21:35:08.705Z,100362.53
2022-10-21T21:39:11.535Z,100359.78
2022-10-21T21:43:13.377Z,100357.16
2022-10-21T21:47:15.257Z,100345.72
2022-10-21T21:51:16.973Z,100342.00
2022-10-21T21:55:18.918Z,100329.47
2022-10-21T21:59:20.560Z,100340.94
2022-10-21T22:03:22.411Z,100336.47
2022-10-21T22:07:24.492Z,100339.78
2022-10-21T22:11:29.163Z,100345.72
2022-10-21T22:15:48.374Z,100334.88
2022-10-21T22:19:53.792Z,100352.31
2022-10-21T22:23:55.940Z,100357.63
2022-10-21T22:27:57.798Z,100368.94
2022-10-21T22:31:59.632Z,100363.81
2022-10-21T22:36:01.988Z,100375.84
2022-10-21T22:40:04.310Z,100369.78
2022-10-21T22:44:06.199Z,100367.25
2022-10-21T22:48:08.865Z,100360.41
2022-10-21T22:52:11.097Z,100354.47
2022-10-21T22:56:13.046Z,100355.47
2022-10-21T23:00:14.923Z,100353.72
2022-10-21T23:04:16.553Z,100359.88
2022-10-21T23:08:19.021Z,100362.63
2022-10-21T23:12:20.714Z,100376.38
2022-10-21T23:16:22.511Z,100383.69
2022-10-21T23:20:24.541Z,100384.16
2022-10-21T23:24:26.493Z,100386.41
2022-10-21T23:28:28.317Z,100388.72
2022-10-21T23:32:30.283Z,100382.50
2022-10-21T23:36:33.083Z,100379.88
2022-10-21T23:40:34.923Z,100374.34
2022-10-21T23:44:36.579Z,100375.97
2022-10-21T23:48:38.496Z,100366.56
2022-10-21T23:52:40.220Z,100369.94
2022-10-21T23:56:42.119Z,100371.72
